»·PEaware :: WAT169 KLAS-KSNA

WAT169 :: KLAS-KSNA

FLIGHT INFORMATION

Flight Status: Arrived
Operator: Unknown
More flights by this operator :: More flights under this callsign
Pilot: Marty P. (27464)
Aircraft: BOEING 737-800
(B738)
More flights by this aircraft type
Origin: KLAS McCarran Intl
United States
Destination: KSNA John Wayne-Orange Co
United States
More flights between these airports :: More routes between these airports
Route: BOACH8 WHIGG FEYLA DSNEE4
File this flight plan on PilotEdge
Remarks:
Altitude:
(Current/Filed)
28,000ft
Speed:
(Current/Filed)
470kts
Departed: 19-May-20 10:01 PM
Arrived: 19-May-20 10:43 PM
Distance/Time
Traveled:
197nm/0:42
Distance/Time
To Go:
Arrived

Flight Plot

Page will automatically refresh every two minutes.


Map Options




Map Legend


Flown Route
Filed Route
Departure Airport
Arrival Airport
Navaid (VOR, NDB)
Fix

Horizontal Profiles

Position Reports

Time Latitude Longitude Heading Altitude Ground
Speed
19-May-20 21:28 36.080313 -115.147275 61 2191ft 0kts
19-May-20 21:29 36.080313 -115.147275 61 2191ft 0kts
19-May-20 21:30 36.080313 -115.147275 61 2191ft 0kts
19-May-20 21:31 36.080313 -115.147275 61 2191ft 0kts
19-May-20 21:32 36.080313 -115.147275 61 2191ft 0kts
19-May-20 21:33 36.080313 -115.147275 61 2191ft 0kts
19-May-20 21:34 36.080313 -115.147275 61 2191ft 0kts
19-May-20 21:35 36.080313 -115.147275 61 2191ft 0kts
19-May-20 21:36 36.080313 -115.147275 61 2191ft 0kts
19-May-20 21:37 36.080313 -115.147275 61 2191ft 0kts
19-May-20 21:38 36.080313 -115.147276 61 2191ft 0kts
19-May-20 21:39 36.080313 -115.147276 61 2191ft 0kts
19-May-20 21:40 36.080251 -115.147735 102 2191ft 2kts
19-May-20 21:41 36.080567 -115.148232 157 2191ft 1kts
19-May-20 21:42 36.080585 -115.148242 158 2191ft 0kts
19-May-20 21:43 36.080585 -115.148242 158 2191ft 0kts
19-May-20 21:44 36.080538 -115.148217 156 2191ft 2kts
19-May-20 21:45 36.078568 -115.146896 112 2191ft 11kts
19-May-20 21:46 36.078255 -115.142793 88 2191ft 11kts
19-May-20 21:47 36.078269 -115.139666 90 2191ft 9kts
19-May-20 21:48 36.078268 -115.135607 89 2191ft 10kts
19-May-20 21:49 36.078274 -115.130865 89 2191ft 14kts
19-May-20 21:50 36.078276 -115.124723 90 2191ft 17kts
19-May-20 21:51 36.077428 -115.121464 141 2191ft 0kts
19-May-20 21:52 36.077428 -115.121464 141 2191ft 0kts
19-May-20 21:53 36.077428 -115.121464 141 2191ft 0kts
19-May-20 21:54 36.077428 -115.121464 141 2191ft 0kts
19-May-20 21:55 36.077428 -115.121464 141 2191ft 0kts
19-May-20 21:56 36.077428 -115.121464 141 2191ft 0kts
19-May-20 21:57 36.077428 -115.121464 141 2191ft 0kts
19-May-20 21:58 36.077428 -115.121464 141 2191ft 0kts
19-May-20 21:59 36.076465 -115.121632 264 2191ft 4kts
19-May-20 22:00 36.076404 -115.148288 269 2215ft 175kts
19-May-20 22:01 36.075483 -115.216424 259 4504ft 241kts
19-May-20 22:02 36.029159 -115.275951 201 7019ft 272kts
19-May-20 22:03 35.958241 -115.303100 189 7781ft 282kts
19-May-20 22:04 35.883255 -115.312046 187 11335ft 282kts
19-May-20 22:05 35.792053 -115.307906 176 12242ft 370kts
19-May-20 22:06 35.688764 -115.311102 201 14857ft 381kts
19-May-20 22:07 35.606222 -115.391894 228 17271ft 390kts
19-May-20 22:08 35.533335 -115.489761 229 19953ft 391kts
19-May-20 22:09 35.459500 -115.589140 229 22071ft 400kts
19-May-20 22:10 35.386009 -115.688171 228 23963ft 408kts
19-May-20 22:11 35.309886 -115.790480 228 26164ft 404kts
19-May-20 22:12 35.234570 -115.891448 227 27954ft 401kts
19-May-20 22:13 35.155889 -115.991507 226 28002ft 416kts
19-May-20 22:14 35.074224 -116.093989 228 28001ft 428kts
19-May-20 22:15 34.990672 -116.199083 228 28011ft 432kts
19-May-20 22:16 34.907779 -116.303025 228 28019ft 421kts
19-May-20 22:17 34.833562 -116.396573 229 28015ft 391kts
19-May-20 22:18 34.758400 -116.492299 229 27957ft 385kts
19-May-20 22:19 34.686417 -116.580952 225 26272ft 350kts
19-May-20 22:20 34.613995 -116.652575 224 24305ft 337kts
19-May-20 22:21 34.541931 -116.722901 224 22312ft 346kts
19-May-20 22:22 34.469419 -116.799891 228 20178ft 341kts
19-May-20 22:23 34.401756 -116.878541 228 18103ft 335kts
19-May-20 22:24 34.334712 -116.956283 227 15975ft 334kts
19-May-20 22:25 34.267316 -117.032082 220 14038ft 333kts
19-May-20 22:26 34.186948 -117.091421 214 13399ft 335kts
19-May-20 22:27 34.101859 -117.139886 207 13020ft 343kts
19-May-20 22:28 34.015133 -117.187106 213 13012ft 339kts
19-May-20 22:29 33.949491 -117.261770 233 11519ft 322kts
19-May-20 22:30 33.894799 -117.338968 233 10054ft 277kts
19-May-20 22:31 33.847819 -117.405465 232 8793ft 247kts
19-May-20 22:32 33.810285 -117.471101 250 7979ft 243kts
19-May-20 22:33 33.795143 -117.548094 273 7618ft 239kts
19-May-20 22:34 33.811027 -117.619985 301 7091ft 214kts
19-May-20 22:35 33.840194 -117.678258 301 5206ft 204kts
19-May-20 22:36 33.840537 -117.726694 227 4604ft 148kts
19-May-20 22:38 33.812818 -117.763081 231 2867ft 138kts
19-May-20 22:39 33.785782 -117.798208 220 2499ft 146kts
19-May-20 22:40 33.750065 -117.821707 208 1609ft 147kts
19-May-20 22:41 33.713603 -117.844833 206 801ft 149kts
19-May-20 22:42 33.677397 -117.867705 206 71ft 134kts
19-May-20 22:43 33.669175 -117.871621 124 66ft 7kts
19-May-20 22:44 33.670860 -117.869125 39 66ft 15kts
19-May-20 22:45 33.674199 -117.866408 28 66ft 12kts
19-May-20 22:46 33.675419 -117.864975 120 66ft 1kts
19-May-20 22:47 33.675374 -117.864880 119 66ft 0kts
19-May-20 22:48 33.675374 -117.864880 119 66ft 0kts

Navigation Log

Ident Type
Flight plan parsing failed, navigation log unavailable